Time;durP1;ratioP1;P1;durP2;ratioP2;P2;SDS_P1;SDS_P2;PMS_P1;PMS_P2;Temp;Humidity;BMP_temperature;BMP_pressure;BME280_temperature;BME280_humidity;BME280_pressure;Samples;Min_cycle;Max_cycle;Signal;HPM_P1;HPM_P2
2021/09/09 00:02:06;;;;;;;6.78;4.97;;;24.60;57.10;;;;;;4957457;28;20089;-80
2021/09/09 00:04:32;;;;;;;6.78;4.63;;;24.50;57.00;;;;;;4941513;28;20031;-80
2021/09/09 00:06:58;;;;;;;6.15;4.55;;;24.50;57.10;;;;;;4937301;29;20034;-79
2021/09/09 00:09:24;;;;;;;6.53;4.97;;;24.40;57.10;;;;;;4953603;28;20125;-79
2021/09/09 00:11:51;;;;;;;7.10;5.30;;;24.40;57.10;;;;;;4941062;28;20035;-79
2021/09/09 00:14:17;;;;;;;6.47;4.97;;;24.40;57.10;;;;;;4970894;28;20053;-79
2021/09/09 00:16:44;;;;;;;6.13;4.75;;;24.40;57.20;;;;;;4950953;28;20037;-80
2021/09/09 00:19:10;;;;;;;6.53;4.70;;;24.40;57.20;;;;;;4965399;28;20122;-79
2021/09/09 00:21:37;;;;;;;6.60;4.93;;;24.30;57.20;;;;;;4941554;28;20555;-79
2021/09/09 00:24:04;;;;;;;6.28;4.57;;;24.40;57.20;;;;;;4956792;28;20117;-80
2021/09/09 00:26:31;;;;;;;5.45;4.38;;;24.30;57.20;;;;;;4949164;28;20515;-80
2021/09/09 00:28:57;;;;;;;7.90;5.45;;;24.30;57.20;;;;;;4973021;28;20030;-81
2021/09/09 00:31:24;;;;;;;6.18;4.75;;;24.20;57.20;;;;;;4941417;28;20542;-80
2021/09/09 00:33:50;;;;;;;6.15;4.85;;;24.20;57.20;;;;;;4964289;28;20081;-80
2021/09/09 00:36:18;;;;;;;6.43;4.90;;;24.20;57.30;;;;;;4947878;28;20478;-80
2021/09/09 00:38:44;;;;;;;7.28;4.88;;;24.20;57.30;;;;;;4956695;28;20117;-81
2021/09/09 00:41:10;;;;;;;6.55;5.03;;;24.10;57.30;;;;;;4948195;28;20399;-79
2021/09/09 00:43:35;;;;;;;6.53;5.05;;;24.10;57.30;;;;;;4973641;28;20085;-81
2021/09/09 00:46:01;;;;;;;6.50;5.57;;;24.10;57.30;;;;;;4933083;29;20089;-79
2021/09/09 00:48:27;;;;;;;6.70;5.28;;;24.00;57.30;;;;;;4953467;28;20039;-81
2021/09/09 00:50:53;;;;;;;7.78;5.85;;;24.10;57.40;;;;;;4970308;28;20123;-81
2021/09/09 00:53:20;;;;;;;6.82;5.00;;;24.10;57.40;;;;;;4967185;28;20051;-80
2021/09/09 00:55:48;;;;;;;7.05;5.53;;;24.00;57.40;;;;;;4948082;28;20035;-81
2021/09/09 00:58:14;;;;;;;7.00;5.10;;;24.00;57.50;;;;;;4973443;28;20113;-79
2021/09/09 01:00:40;;;;;;;7.20;5.50;;;24.00;57.50;;;;;;4970435;28;20031;-80
2021/09/09 01:03:07;;;;;;;7.57;5.78;;;24.00;57.50;;;;;;4955841;28;20102;-80
2021/09/09 01:05:34;;;;;;;6.50;5.00;;;23.90;57.50;;;;;;4939876;28;20054;-80
2021/09/09 01:08:00;;;;;;;7.03;5.35;;;23.90;57.50;;;;;;4931851;28;20027;-80
2021/09/09 01:10:26;;;;;;;7.57;5.50;;;23.90;57.50;;;;;;4943838;28;20411;-80
2021/09/09 01:12:51;;;;;;;6.97;5.35;;;23.80;57.50;;;;;;4933435;28;20387;-80
2021/09/09 01:15:17;;;;;;;6.40;5.22;;;23.80;57.50;;;;;;4969116;28;20038;-80
2021/09/09 01:17:43;;;;;;;7.05;5.13;;;23.80;57.60;;;;;;4956495;28;20455;-80
2021/09/09 01:20:10;;;;;;;6.93;5.30;;;23.80;57.60;;;;;;4973404;28;20403;-80
2021/09/09 01:22:35;;;;;;;6.75;5.45;;;23.70;57.60;;;;;;4924639;28;20041;-80
2021/09/09 01:25:01;;;;;;;7.53;5.40;;;23.70;57.60;;;;;;4939611;28;20039;-80
2021/09/09 01:27:27;;;;;;;6.80;5.40;;;23.70;57.70;;;;;;4958299;28;20121;-79
2021/09/09 01:29:53;;;;;;;7.55;5.80;;;23.70;57.70;;;;;;4954869;28;20043;-81
2021/09/09 01:32:19;;;;;;;6.43;5.25;;;23.70;57.70;;;;;;4948266;28;20038;-80
2021/09/09 01:34:45;;;;;;;6.88;5.32;;;23.70;57.80;;;;;;4956007;28;20054;-80
2021/09/09 01:37:11;;;;;;;6.40;5.05;;;23.60;57.70;;;;;;4955833;28;20031;-80
2021/09/09 01:39:41;;;;;;;6.63;5.45;;;23.60;57.70;;;;;;4955684;28;20033;-80
2021/09/09 01:42:07;;;;;;;7.15;5.80;;;23.60;57.80;;;;;;4972030;28;20031;-80
2021/09/09 01:44:33;;;;;;;7.07;5.50;;;23.60;57.80;;;;;;4972815;28;20027;-79
2021/09/09 01:46:59;;;;;;;7.18;5.18;;;23.50;57.80;;;;;;4959126;28;20470;-82
2021/09/09 01:49:26;;;;;;;7.45;5.78;;;23.50;57.80;;;;;;4972461;28;20438;-80
2021/09/09 01:51:51;;;;;;;7.35;5.45;;;23.50;57.80;;;;;;4947552;28;20043;-79
2021/09/09 01:54:17;;;;;;;6.32;5.00;;;23.50;57.90;;;;;;4954867;28;20030;-80
2021/09/09 01:56:43;;;;;;;6.68;4.95;;;23.50;57.90;;;;;;4933682;28;20037;-80
2021/09/09 01:59:10;;;;;;;7.07;5.30;;;23.40;57.90;;;;;;4932167;28;20031;-80
2021/09/09 02:01:35;;;;;;;6.78;5.25;;;23.40;57.90;;;;;;4962312;28;20388;-79
2021/09/09 02:04:01;;;;;;;7.22;5.50;;;23.30;57.90;;;;;;4922952;28;20038;-79
2021/09/09 02:06:27;;;;;;;6.93;5.30;;;23.40;58.00;;;;;;4923169;28;20114;-80
2021/09/09 02:08:53;;;;;;;6.93;5.45;;;23.30;58.00;;;;;;4946999;28;20034;-82
2021/09/09 02:11:20;;;;;;;6.75;5.30;;;23.30;58.00;;;;;;4955254;28;20035;-79
2021/09/09 02:13:46;;;;;;;6.82;5.18;;;23.30;58.00;;;;;;4939992;28;20069;-82
2021/09/09 02:16:12;;;;;;;7.45;5.88;;;23.30;58.00;;;;;;4970385;28;20050;-80
2021/09/09 02:18:38;;;;;;;7.45;6.10;;;23.20;58.00;;;;;;4955288;28;20039;-81
2021/09/09 02:21:04;;;;;;;7.43;5.70;;;23.20;58.10;;;;;;4958490;28;20398;-79
2021/09/09 02:23:30;;;;;;;6.90;5.20;;;23.20;58.10;;;;;;4958170;28;20021;-80
2021/09/09 02:25:56;;;;;;;7.88;5.53;;;23.20;58.10;;;;;;4959995;28;20030;-82
2021/09/09 02:28:22;;;;;;;6.78;5.30;;;23.10;58.10;;;;;;4939103;28;20031;-80
2021/09/09 02:30:47;;;;;;;6.55;5.15;;;23.10;58.10;;;;;;4938941;28;20031;-80
2021/09/09 02:33:13;;;;;;;7.18;5.63;;;23.10;58.10;;;;;;4955042;28;20062;-80
2021/09/09 02:35:39;;;;;;;6.97;5.35;;;23.10;58.20;;;;;;4957082;28;20030;-79
2021/09/09 02:38:05;;;;;;;6.75;5.15;;;23.10;58.20;;;;;;4976130;28;20416;-79
2021/09/09 02:40:31;;;;;;;7.68;5.90;;;23.10;58.30;;;;;;4976017;28;20046;-79
2021/09/09 02:42:57;;;;;;;7.18;5.43;;;23.00;58.20;;;;;;4963119;28;20702;-81
2021/09/09 02:45:23;;;;;;;6.88;5.38;;;23.00;58.30;;;;;;4970715;28;20046;-79
2021/09/09 02:47:50;;;;;;;7.68;5.75;;;22.90;58.30;;;;;;4958590;28;20159;-80
2021/09/09 02:50:16;;;;;;;7.70;5.57;;;23.00;58.30;;;;;;4933686;28;20063;-80
2021/09/09 02:52:42;;;;;;;6.90;5.38;;;22.90;58.30;;;;;;4950635;28;20078;-80
2021/09/09 02:55:09;;;;;;;6.63;5.20;;;22.90;58.40;;;;;;4975094;28;20043;-80
2021/09/09 02:57:35;;;;;;;6.53;5.05;;;22.90;58.40;;;;;;4972126;28;20030;-80
2021/09/09 03:00:02;;;;;;;8.50;5.57;;;22.90;58.40;;;;;;4969764;28;20027;-79
2021/09/09 03:02:28;;;;;;;7.85;6.28;;;22.80;58.40;;;;;;4945112;28;20031;-79
2021/09/09 03:04:53;;;;;;;7.20;5.88;;;22.80;58.50;;;;;;4975799;28;20041;-80
2021/09/09 03:07:19;;;;;;;6.80;5.15;;;22.80;58.50;;;;;;4975152;28;20135;-80
2021/09/09 03:09:45;;;;;;;7.10;5.55;;;22.80;58.50;;;;;;4965970;28;20050;-79
2021/09/09 03:12:11;;;;;;;7.35;5.75;;;22.70;58.50;;;;;;4974946;28;20038;-79
2021/09/09 03:14:37;;;;;;;8.15;6.38;;;22.80;58.60;;;;;;4925395;28;20175;-80
2021/09/09 03:17:02;;;;;;;6.85;5.20;;;22.70;58.60;;;;;;4942158;28;20027;-81
2021/09/09 03:19:29;;;;;;;6.95;5.47;;;22.70;58.60;;;;;;4958820;28;20490;-80
2021/09/09 03:21:54;;;;;;;7.68;5.85;;;22.70;58.70;;;;;;4955186;28;20031;-80
2021/09/09 03:24:20;;;;;;;7.22;5.90;;;22.60;58.60;;;;;;4925594;28;20371;-80
2021/09/09 03:26:46;;;;;;;7.45;5.65;;;22.60;58.60;;;;;;4942263;28;20034;-79
2021/09/09 03:29:12;;;;;;;6.97;5.72;;;22.60;58.60;;;;;;4939867;28;20031;-78
2021/09/09 03:31:37;;;;;;;7.75;5.88;;;22.60;58.70;;;;;;4922797;29;20464;-79
2021/09/09 03:34:03;;;;;;;6.72;5.35;;;22.60;58.70;;;;;;4969922;28;20093;-81
2021/09/09 03:36:29;;;;;;;7.68;6.07;;;22.50;58.70;;;;;;4974799;28;20035;-79
2021/09/09 03:38:55;;;;;;;7.47;5.75;;;22.50;58.70;;;;;;4942589;28;20035;-79
2021/09/09 03:41:21;;;;;;;7.57;5.90;;;22.50;58.70;;;;;;4957905;28;20038;-80
2021/09/09 03:43:47;;;;;;;6.85;5.50;;;22.50;58.80;;;;;;4958301;28;20035;-80
2021/09/09 03:46:13;;;;;;;7.05;5.40;;;22.50;58.80;;;;;;4941100;28;20050;-79
2021/09/09 03:48:38;;;;;;;7.38;5.72;;;22.40;58.80;;;;;;4932164;28;20435;-79
2021/09/09 03:51:04;;;;;;;6.88;5.38;;;22.40;58.80;;;;;;4955159;28;20187;-80
2021/09/09 03:53:30;;;;;;;6.95;5.35;;;22.40;58.90;;;;;;4972673;28;20039;-80
2021/09/09 03:55:56;;;;;;;7.60;5.90;;;22.40;58.90;;;;;;4943647;28;20042;-79
2021/09/09 03:58:21;;;;;;;8.30;6.10;;;22.40;58.90;;;;;;4931959;28;20039;-80
2021/09/09 04:00:47;;;;;;;7.30;5.45;;;22.30;58.90;;;;;;4974666;28;20086;-79
2021/09/09 04:03:13;;;;;;;7.38;5.70;;;22.30;58.90;;;;;;4925324;28;20494;-78
2021/09/09 04:05:38;;;;;;;7.53;6.05;;;22.30;59.00;;;;;;4963417;28;20510;-77
2021/09/09 04:08:07;;;;;;;7.38;5.78;;;22.30;59.00;;;;;;4935668;29;20028;-80
2021/09/09 04:10:33;;;;;;;7.18;5.85;;;22.30;59.00;;;;;;4970586;28;20428;-81
2021/09/09 04:12:59;;;;;;;7.22;5.95;;;22.20;59.00;;;;;;4925352;28;20529;-81
2021/09/09 04:15:24;;;;;;;7.85;5.97;;;22.20;59.00;;;;;;4933931;29;20076;-80
2021/09/09 04:17:50;;;;;;;6.97;5.28;;;22.20;59.00;;;;;;4971725;28;20042;-80
2021/09/09 04:20:16;;;;;;;7.45;5.93;;;22.20;59.00;;;;;;4960254;28;20529;-80
2021/09/09 04:22:42;;;;;;;7.85;6.07;;;22.20;59.10;;;;;;4956258;28;20026;-80
2021/09/09 04:25:08;;;;;;;8.27;6.10;;;22.10;59.10;;;;;;4957970;28;20392;-80
2021/09/09 04:27:34;;;;;;;7.13;6.03;;;22.10;59.20;;;;;;4933990;29;20480;-80
2021/09/09 04:30:00;;;;;;;7.20;5.88;;;22.10;59.20;;;;;;4968144;28;20046;-81
2021/09/09 04:32:26;;;;;;;8.18;6.32;;;22.10;59.20;;;;;;4956937;28;20106;-80
2021/09/09 04:34:52;;;;;;;7.75;6.38;;;22.00;59.10;;;;;;4940218;28;20121;-80
2021/09/09 04:37:18;;;;;;;7.30;5.55;;;22.00;59.20;;;;;;4940309;28;20062;-82
2021/09/09 04:39:44;;;;;;;7.85;6.43;;;22.00;59.20;;;;;;4932222;28;20042;-81
2021/09/09 04:42:10;;;;;;;8.13;6.00;;;22.00;59.20;;;;;;4961716;28;20054;-86
2021/09/09 04:44:36;;;;;;;7.40;5.95;;;22.00;59.30;;;;;;4943508;28;20081;-85
2021/09/09 04:47:02;;;;;;;8.43;6.80;;;22.00;59.30;;;;;;4949717;28;20439;-91
2021/09/09 04:49:28;;;;;;;7.70;6.03;;;21.90;59.30;;;;;;4951415;28;20065;-84
2021/09/09 04:51:53;;;;;;;7.72;6.22;;;21.90;59.40;;;;;;4957147;28;20483;-85
2021/09/09 04:54:19;;;;;;;7.05;5.80;;;21.90;59.40;;;;;;4952723;28;20038;-83
2021/09/09 04:56:45;;;;;;;8.05;6.00;;;21.80;59.40;;;;;;4973662;28;20034;-82
2021/09/09 04:59:11;;;;;;;7.43;5.88;;;21.80;59.40;;;;;;4949360;28;20031;-85
2021/09/09 05:01:37;;;;;;;7.95;6.10;;;21.80;59.40;;;;;;4956530;28;20047;-88
2021/09/09 05:04:03;;;;;;;7.78;6.07;;;21.80;59.50;;;;;;4956360;28;20027;-79
2021/09/09 05:06:29;;;;;;;7.35;5.75;;;21.80;59.50;;;;;;4961488;28;20109;-80
2021/09/09 05:08:55;;;;;;;8.13;6.40;;;21.80;59.50;;;;;;4939158;28;20030;-78
2021/09/09 05:11:21;;;;;;;7.50;6.03;;;21.70;60.10;;;;;;4940056;28;20039;-79
2021/09/09 05:13:46;;;;;;;8.52;6.88;;;21.70;59.50;;;;;;4939219;28;20414;-79
2021/09/09 05:16:12;;;;;;;7.43;6.00;;;21.70;59.50;;;;;;4972403;28;20031;-80
2021/09/09 05:18:38;;;;;;;7.53;6.03;;;21.70;59.60;;;;;;4955951;28;20035;-79
2021/09/09 05:21:04;;;;;;;8.13;6.03;;;21.70;59.60;;;;;;4972898;28;20049;-80
2021/09/09 05:23:30;;;;;;;8.00;6.28;;;21.60;59.60;;;;;;4923775;28;20030;-79
2021/09/09 05:25:55;;;;;;;8.18;6.55;;;21.60;59.60;;;;;;4964423;28;20368;-78
2021/09/09 05:28:21;;;;;;;8.18;6.40;;;21.60;59.70;;;;;;4947202;29;20035;-79
2021/09/09 05:30:47;;;;;;;8.02;5.95;;;21.60;59.70;;;;;;4932847;29;20031;-80
2021/09/09 05:33:13;;;;;;;8.15;6.28;;;21.60;59.60;;;;;;4954884;28;20039;-81
2021/09/09 05:35:44;;;;;;;7.72;6.03;;;21.50;59.60;;;;;;4947583;28;20034;-80
2021/09/09 05:38:10;;;;;;;7.22;5.68;;;21.50;59.70;;;;;;4939963;28;20034;-79
2021/09/09 05:40:36;;;;;;;7.30;5.68;;;21.50;59.70;;;;;;4939343;28;20162;-79
2021/09/09 05:43:02;;;;;;;7.25;5.85;;;21.50;59.80;;;;;;4947605;28;20042;-79
2021/09/09 05:45:28;;;;;;;8.07;6.03;;;21.50;59.80;;;;;;4922015;28;20027;-79
2021/09/09 05:47:53;;;;;;;7.47;5.97;;;21.50;59.80;;;;;;4923735;28;20039;-79
2021/09/09 05:50:19;;;;;;;7.22;5.93;;;21.40;59.80;;;;;;4963337;28;20109;-79
2021/09/09 05:52:46;;;;;;;6.88;5.72;;;21.40;59.80;;;;;;4972889;28;20046;-79
2021/09/09 05:55:12;;;;;;;7.63;5.90;;;21.40;59.90;;;;;;4959927;28;20031;-79
2021/09/09 05:57:39;;;;;;;7.70;6.03;;;21.40;59.90;;;;;;4947122;28;20026;-80
2021/09/09 06:00:06;;;;;;;7.70;6.30;;;21.40;60.00;;;;;;4939635;28;20041;-79
2021/09/09 06:02:33;;;;;;;7.63;6.15;;;21.40;60.00;;;;;;4964446;28;20151;-79
2021/09/09 06:05:00;;;;;;;8.13;6.05;;;21.40;60.00;;;;;;4962007;28;20545;-80
2021/09/09 06:07:26;;;;;;;8.18;6.35;;;21.30;60.00;;;;;;4972885;28;20031;-80
2021/09/09 06:09:52;;;;;;;8.88;6.15;;;21.30;60.00;;;;;;4956327;28;20490;-79
2021/09/09 06:12:19;;;;;;;8.40;6.40;;;21.30;60.00;;;;;;4976401;28;20018;-80
2021/09/09 06:14:45;;;;;;;7.28;6.10;;;21.30;60.10;;;;;;4965657;28;20039;-80
2021/09/09 06:17:11;;;;;;;8.25;6.03;;;21.30;60.10;;;;;;4958994;28;20034;-80
2021/09/09 06:19:37;;;;;;;7.95;6.25;;;21.30;60.10;;;;;;4959108;28;20387;-79
2021/09/09 06:22:03;;;;;;;8.30;6.93;;;21.30;60.10;;;;;;4959260;28;20035;-80
2021/09/09 06:24:28;;;;;;;7.45;5.97;;;21.30;60.10;;;;;;4924044;29;20077;-79
2021/09/09 06:26:54;;;;;;;7.70;6.20;;;21.30;60.20;;;;;;4972957;28;20121;-79
2021/09/09 06:29:20;;;;;;;8.35;6.45;;;21.30;60.20;;;;;;4976267;28;20046;-80
2021/09/09 06:31:46;;;;;;;8.35;6.05;;;21.20;60.20;;;;;;4943061;28;20060;-80
2021/09/09 06:34:12;;;;;;;7.55;5.80;;;21.20;60.20;;;;;;4950698;28;20038;-80
2021/09/09 06:36:37;;;;;;;7.75;6.22;;;21.20;60.20;;;;;;4958811;28;20027;-79
2021/09/09 06:39:03;;;;;;;8.32;6.35;;;21.20;60.20;;;;;;4975999;28;20066;-79
2021/09/09 06:41:29;;;;;;;8.65;6.70;;;21.20;60.30;;;;;;4958887;28;20110;-80
2021/09/09 06:43:55;;;;;;;8.10;6.05;;;21.20;60.30;;;;;;4946197;28;20126;-80
2021/09/09 06:46:20;;;;;;;7.53;6.25;;;21.20;60.30;;;;;;4942179;28;20031;-81
2021/09/09 06:48:46;;;;;;;7.80;6.18;;;21.20;60.30;;;;;;4960122;28;20487;-80
2021/09/09 06:51:12;;;;;;;9.52;6.97;;;21.20;60.40;;;;;;4974550;28;20039;-79
2021/09/09 06:53:37;;;;;;;8.20;6.43;;;21.20;60.40;;;;;;4942401;28;20119;-79
2021/09/09 06:56:04;;;;;;;8.40;6.43;;;21.20;60.50;;;;;;4975830;28;20051;-79
2021/09/09 06:58:30;;;;;;;8.27;6.70;;;21.20;60.50;;;;;;4974065;28;20035;-80
2021/09/09 07:00:56;;;;;;;8.00;6.38;;;21.20;60.50;;;;;;4975552;28;20037;-79
2021/09/09 07:03:22;;;;;;;7.78;6.05;;;21.20;60.50;;;;;;4950646;28;20070;-82
2021/09/09 07:05:47;;;;;;;7.70;6.45;;;21.20;60.60;;;;;;4966278;28;20039;-79
2021/09/09 07:08:13;;;;;;;9.98;7.43;;;21.20;61.00;;;;;;4933982;28;20434;-80
2021/09/09 07:10:39;;;;;;;8.77;6.15;;;21.20;60.70;;;;;;4963538;28;20111;-80
2021/09/09 07:13:05;;;;;;;8.15;6.22;;;21.20;60.60;;;;;;4950249;28;20051;-79
2021/09/09 07:15:30;;;;;;;7.55;6.32;;;21.20;60.70;;;;;;4965854;28;20033;-80
2021/09/09 07:17:56;;;;;;;7.57;6.20;;;21.20;60.70;;;;;;4920410;28;20154;-80
2021/09/09 07:20:22;;;;;;;8.32;6.60;;;21.20;60.80;;;;;;4981773;28;20053;-81
2021/09/09 07:22:47;;;;;;;7.88;6.68;;;21.20;60.80;;;;;;4956736;28;20391;-80
2021/09/09 07:25:13;;;;;;;7.90;6.78;;;21.20;60.80;;;;;;4934226;28;20396;-80
2021/09/09 07:27:39;;;;;;;8.57;7.25;;;21.20;60.80;;;;;;4945345;28;20085;-80
2021/09/09 07:30:05;;;;;;;7.43;6.05;;;21.20;60.80;;;;;;4949571;28;20499;-80
2021/09/09 07:32:31;;;;;;;8.10;6.35;;;21.20;60.90;;;;;;4965813;28;20061;-78
2021/09/09 07:34:57;;;;;;;8.35;7.05;;;21.20;60.90;;;;;;4950584;28;20479;-85
2021/09/09 07:37:23;;;;;;;8.05;6.55;;;21.20;60.90;;;;;;4959810;28;20034;-76
2021/09/09 07:39:48;;;;;;;8.77;6.50;;;21.20;60.90;;;;;;4961384;28;20454;-78
2021/09/09 07:42:15;;;;;;;7.60;6.13;;;21.20;60.90;;;;;;4941821;28;20035;-80
2021/09/09 07:44:40;;;;;;;8.45;6.68;;;21.20;60.90;;;;;;4975158;28;20046;-84
2021/09/09 07:47:06;;;;;;;7.57;6.15;;;21.20;60.90;;;;;;4943559;28;20479;-88
2021/09/09 07:49:32;;;;;;;7.22;6.15;;;21.20;61.00;;;;;;4975514;28;20031;-87
2021/09/09 07:51:58;;;;;;;8.80;7.20;;;21.20;61.10;;;;;;4958108;28;20051;-81
2021/09/09 07:54:24;;;;;;;7.82;6.15;;;21.30;61.10;;;;;;4942161;28;20035;-83
2021/09/09 07:56:50;;;;;;;8.30;6.47;;;21.30;61.10;;;;;;4951427;28;20498;-81
2021/09/09 07:59:17;;;;;;;8.52;6.55;;;21.30;61.20;;;;;;4950890;29;20039;-81
2021/09/09 08:01:45;;;;;;;7.95;6.70;;;21.30;61.30;;;;;;4972722;28;20062;-79
2021/09/09 08:04:16;;;;;;;7.75;6.57;;;21.30;61.30;;;;;;4960401;28;20113;-80
2021/09/09 08:06:45;;;;;;;7.25;6.15;;;21.30;61.30;;;;;;4974337;28;20545;-83
2021/09/09 08:09:11;;;;;;;8.20;6.43;;;21.30;61.40;;;;;;4974445;28;20042;-82
2021/09/09 08:11:39;;;;;;;7.88;6.28;;;21.30;61.40;;;;;;4957477;28;20078;-82
2021/09/09 08:14:05;;;;;;;7.88;6.53;;;21.40;61.40;;;;;;4946692;29;20142;-83
2021/09/09 08:16:32;;;;;;;7.85;6.30;;;21.40;61.40;;;;;;4968952;28;20552;-77
2021/09/09 08:18:58;;;;;;;8.00;6.55;;;21.40;61.40;;;;;;4973539;28;20043;-77
2021/09/09 08:21:23;;;;;;;7.60;6.22;;;21.40;61.40;;;;;;4939880;28;20034;-78
2021/09/09 08:23:49;;;;;;;7.72;6.50;;;21.40;61.40;;;;;;4963603;28;20195;-76
2021/09/09 08:26:15;;;;;;;8.13;6.78;;;21.50;61.50;;;;;;4955871;28;20391;-77
2021/09/09 08:28:41;;;;;;;8.50;6.55;;;21.50;61.50;;;;;;4955157;28;20034;-77
2021/09/09 08:31:06;;;;;;;8.20;6.93;;;21.50;61.50;;;;;;4955810;28;20110;-77
2021/09/09 08:33:33;;;;;;;7.53;5.70;;;21.50;61.60;;;;;;4960251;28;20475;-79
2021/09/09 08:36:09;;;;;;;7.22;6.10;;;21.60;61.60;;;;;;4958650;28;20117;-81
2021/09/09 08:38:35;;;;;;;7.45;6.03;;;21.60;61.70;;;;;;4956789;28;20042;-86
2021/09/09 08:41:04;;;;;;;8.00;6.03;;;21.60;61.50;;;;;;4949297;28;20031;-91
2021/09/09 08:43:31;;;;;;;7.30;5.97;;;21.60;61.50;;;;;;4966500;28;20132;-92
2021/09/09 08:46:00;;;;;;;7.80;6.32;;;21.70;61.50;;;;;;4956768;28;20031;-86
2021/09/09 08:48:28;;;;;;;8.35;5.78;;;21.70;61.50;;;;;;4973795;28;20027;-85
2021/09/09 08:50:53;;;;;;;7.97;6.47;;;21.70;61.40;;;;;;4942459;28;20053;-83
2021/09/09 08:53:20;;;;;;;7.85;6.15;;;21.80;61.40;;;;;;4956343;28;20054;-89
2021/09/09 08:55:47;;;;;;;7.57;5.75;;;21.80;61.30;;;;;;4956215;28;20039;-86
2021/09/09 08:58:13;;;;;;;7.35;5.93;;;21.90;61.30;;;;;;4940886;28;20045;-89
2021/09/09 09:00:58;;;;;;;7.68;5.70;;;21.90;61.20;;;;;;4948367;28;20035;-85
2021/09/09 09:04:03;;;;;;;6.65;5.38;;;22.00;61.20;;;;;;4973181;28;20029;-82
2021/09/09 09:06:32;;;;;;;7.03;5.22;;;22.10;61.30;;;;;;4952450;28;20134;-81
2021/09/09 09:09:08;;;;;;;6.68;5.32;;;22.20;61.00;;;;;;4972942;28;20042;-79
2021/09/09 09:11:44;;;;;;;6.75;5.25;;;22.20;61.10;;;;;;4947566;28;20479;-77
2021/09/09 09:14:12;;;;;;;6.43;4.97;;;22.30;61.00;;;;;;4940925;28;20085;-79
2021/09/09 09:16:47;;;;;;;6.65;5.20;;;22.30;61.00;;;;;;4963768;28;20066;-81
2021/09/09 09:19:15;;;;;;;7.00;5.53;;;22.40;61.10;;;;;;4949169;28;20057;-80
2021/09/09 09:21:44;;;;;;;7.03;5.20;;;22.50;61.10;;;;;;4971567;28;20081;-78
2021/09/09 09:24:15;;;;;;;7.07;5.78;;;22.50;61.10;;;;;;4965361;28;20376;-79
2021/09/09 09:26:41;;;;;;;7.15;5.68;;;22.60;61.30;;;;;;4948151;28;20039;-80
2021/09/09 09:29:06;;;;;;;6.97;5.50;;;22.60;61.20;;;;;;4924262;28;20069;-79
2021/09/09 09:31:35;;;;;;;8.07;5.55;;;22.80;61.30;;;;;;4940029;28;20029;-79
2021/09/09 09:34:04;;;;;;;6.82;5.53;;;22.80;61.40;;;;;;4939497;28;20122;-81
2021/09/09 09:36:38;;;;;;;6.85;5.32;;;22.90;61.40;;;;;;4955743;28;20097;-80
2021/09/09 09:39:05;;;;;;;6.95;5.85;;;23.00;61.50;;;;;;4973217;28;20043;-81
2021/09/09 09:41:31;;;;;;;7.32;5.15;;;23.10;61.40;;;;;;4963755;28;20057;-80
2021/09/09 09:44:00;;;;;;;7.15;5.75;;;23.20;61.50;;;;;;4955495;28;20093;-80
2021/09/09 09:46:46;;;;;;;6.53;5.13;;;23.20;61.60;;;;;;4946706;28;20027;-80
2021/09/09 09:49:20;;;;;;;6.47;4.82;;;23.30;61.60;;;;;;4952608;29;20040;-80
2021/09/09 09:51:50;;;;;;;7.70;5.35;;;23.40;61.70;;;;;;4965712;28;20047;-80
2021/09/09 09:54:17;;;;;;;5.72;4.63;;;23.50;61.60;;;;;;4973027;28;20035;-81
2021/09/09 09:56:45;;;;;;;6.70;4.68;;;23.60;61.70;;;;;;4940155;28;20150;-80
2021/09/09 09:59:11;;;;;;;6.18;4.88;;;23.60;61.60;;;;;;4955872;28;20050;-80
2021/09/09 10:01:37;;;;;;;5.68;4.60;;;23.70;61.50;;;;;;4939652;28;20151;-82
2021/09/09 10:04:12;;;;;;;5.78;4.57;;;23.80;61.60;;;;;;4957050;28;20030;-78
2021/09/09 10:06:37;;;;;;;5.53;4.40;;;23.80;61.50;;;;;;4955352;28;20053;-79
2021/09/09 10:09:05;;;;;;;5.95;4.47;;;23.90;61.50;;;;;;4955461;28;20480;-78
2021/09/09 10:11:31;;;;;;;5.88;4.63;;;24.00;61.60;;;;;;4939684;28;20479;-78
2021/09/09 10:13:59;;;;;;;5.97;4.65;;;24.00;61.60;;;;;;4954891;28;20035;-78
2021/09/09 10:16:28;;;;;;;5.57;4.63;;;24.10;61.80;;;;;;4956004;28;20031;-79
2021/09/09 10:18:54;;;;;;;5.30;4.18;;;24.20;61.90;;;;;;4962952;28;20023;-78
2021/09/09 10:21:40;;;;;;;5.82;4.57;;;24.20;62.00;;;;;;4971256;28;20027;-78
2021/09/09 10:24:17;;;;;;;5.25;4.07;;;24.30;62.20;;;;;;4972446;28;20031;-78
2021/09/09 10:26:48;;;;;;;5.90;4.30;;;24.40;62.30;;;;;;4962651;28;20100;-80
2021/09/09 10:29:42;;;;;;;5.50;4.18;;;24.50;62.30;;;;;;4963675;28;20054;-79
2021/09/09 10:32:09;;;;;;;5.53;4.28;;;24.50;62.40;;;;;;4972483;28;20035;-78
2021/09/09 10:34:35;;;;;;;5.32;4.00;;;24.60;62.30;;;;;;4972411;28;20027;-78
2021/09/09 10:37:03;;;;;;;5.60;4.53;;;24.70;62.40;;;;;;4920076;28;20058;-79
2021/09/09 10:39:35;;;;;;;5.43;4.07;;;24.80;62.50;;;;;;4955657;28;20463;-78
2021/09/09 10:42:33;;;;;;;5.60;4.30;;;24.90;62.60;;;;;;4971865;28;20059;-77
2021/09/09 10:44:58;;;;;;;5.80;4.25;;;24.90;62.60;;;;;;4927363;28;20039;-79
2021/09/09 10:47:24;;;;;;;6.22;4.18;;;25.10;62.30;;;;;;4939476;28;20038;-80
2021/09/09 10:50:01;;;;;;;5.40;4.38;;;25.10;62.30;;;;;;4972079;28;20043;-80
2021/09/09 10:52:27;;;;;;;5.47;4.50;;;25.20;62.50;;;;;;4954850;28;20055;-80
2021/09/09 10:55:12;;;;;;;5.22;4.20;;;25.30;62.40;;;;;;4938764;28;20498;-80
2021/09/09 10:57:38;;;;;;;5.78;4.13;;;25.30;62.60;;;;;;4948910;28;20145;-80
2021/09/09 11:00:05;;;;;;;5.43;4.60;;;25.40;62.50;;;;;;4975627;28;20039;-82
2021/09/09 11:02:33;;;;;;;6.35;4.32;;;25.50;62.60;;;;;;4975512;28;20034;-81
2021/09/09 11:05:04;;;;;;;5.85;4.50;;;25.60;62.80;;;;;;4966782;28;20027;-80
2021/09/09 11:07:32;;;;;;;5.60;4.63;;;25.60;63.00;;;;;;4958398;28;20034;-81
2021/09/09 11:10:09;;;;;;;6.15;4.35;;;25.70;63.10;;;;;;4947197;29;20126;-80
2021/09/09 11:12:40;;;;;;;6.07;4.53;;;25.80;63.50;;;;;;4950344;29;20046;-80
2021/09/09 11:15:09;;;;;;;4.97;3.88;;;25.90;63.50;;;;;;4974102;28;20109;-80
2021/09/09 11:17:36;;;;;;;5.35;4.00;;;25.90;63.50;;;;;;4958460;28;20046;-80
2021/09/09 11:20:10;;;;;;;5.57;4.18;;;26.00;63.70;;;;;;4941983;28;20053;-80
2021/09/09 11:22:38;;;;;;;5.07;4.15;;;26.00;64.10;;;;;;4962059;28;20055;-79
2021/09/09 11:25:16;;;;;;;5.55;4.30;;;26.10;64.30;;;;;;4974897;28;20081;-80
2021/09/09 11:27:41;;;;;;;4.63;3.80;;;26.10;64.50;;;;;;4958101;28;20495;-79
2021/09/09 11:30:08;;;;;;;6.05;4.38;;;26.20;64.80;;;;;;4957638;28;20134;-80
2021/09/09 11:32:34;;;;;;;5.53;4.28;;;26.20;65.10;;;;;;4934508;28;20038;-80
2021/09/09 11:35:10;;;;;;;5.70;4.28;;;26.30;65.50;;;;;;4962787;28;20035;-80
2021/09/09 11:37:46;;;;;;;5.57;4.10;;;26.40;66.00;;;;;;4965901;28;20081;-80
2021/09/09 11:40:14;;;;;;;5.25;4.30;;;26.40;66.10;;;;;;4957469;28;20048;-80
2021/09/09 11:42:40;;;;;;;5.45;4.28;;;26.40;66.10;;;;;;4950883;28;20057;-80
2021/09/09 11:45:07;;;;;;;5.13;3.92;;;26.40;66.40;;;;;;4933592;28;20039;-80
2021/09/09 11:47:33;;;;;;;5.28;4.25;;;26.50;66.70;;;;;;4949388;28;20130;-81
2021/09/09 11:50:08;;;;;;;6.25;4.72;;;26.50;66.90;;;;;;4941604;28;20047;-81
2021/09/09 11:52:36;;;;;;;5.75;4.55;;;26.60;67.30;;;;;;4965535;28;20073;-80
2021/09/09 11:55:15;;;;;;;6.03;4.50;;;26.60;67.30;;;;;;4941209;28;20042;-81
2021/09/09 11:57:43;;;;;;;5.70;4.80;;;26.60;67.70;;;;;;4953525;28;20082;-81
2021/09/09 12:00:11;;;;;;;5.90;4.55;;;26.70;67.70;;;;;;4965246;28;20035;-80
2021/09/09 12:02:37;;;;;;;5.55;4.63;;;26.70;67.80;;;;;;4965226;28;20109;-81
2021/09/09 12:05:08;;;;;;;5.60;4.63;;;26.70;67.70;;;;;;4925278;28;20039;-81
2021/09/09 12:07:34;;;;;;;6.05;4.22;;;26.80;67.90;;;;;;4948625;28;20031;-81
2021/09/09 12:10:14;;;;;;;6.00;4.70;;;26.80;67.80;;;;;;4933206;28;20130;-81
2021/09/09 12:12:53;;;;;;;5.63;4.72;;;26.90;68.10;;;;;;4949177;28;20042;-81
2021/09/09 12:15:23;;;;;;;5.43;4.45;;;26.90;68.00;;;;;;4934483;28;20027;-81
2021/09/09 12:17:49;;;;;;;6.10;4.80;;;27.00;68.20;;;;;;4946727;28;20122;-80
2021/09/09 12:20:25;;;;;;;5.53;4.50;;;27.00;68.20;;;;;;4965520;28;20039;-81
2021/09/09 12:22:54;;;;;;;6.57;5.70;;;27.00;68.50;;;;;;4974214;28;20030;-81
2021/09/09 12:25:29;;;;;;;6.57;5.70;;;27.10;68.50;;;;;;4956864;28;20030;-81
2021/09/09 12:28:15;;;;;;;7.07;5.90;;;27.10;68.60;;;;;;4962387;28;20042;-81
2021/09/09 12:30:53;;;;;;;6.60;5.60;;;27.20;68.70;;;;;;4964902;28;20081;-81
2021/09/09 12:33:21;;;;;;;6.95;5.63;;;27.20;68.60;;;;;;4973584;28;20027;-80
2021/09/09 12:36:02;;;;;;;6.38;5.40;;;27.20;68.40;;;;;;4948820;28;20062;-80
2021/09/09 12:38:51;;;;;;;6.60;5.05;;;27.20;68.40;;;;;;4966093;28;20027;-81
2021/09/09 12:41:16;;;;;;;5.82;4.95;;;27.30;68.20;;;;;;4968215;28;20078;-81
2021/09/09 12:43:50;;;;;;;6.03;5.18;;;27.30;68.60;;;;;;4964794;28;20078;-81
2021/09/09 12:46:27;;;;;;;5.97;4.73;;;27.40;68.00;;;;;;4956572;28;20471;-81
2021/09/09 12:49:05;;;;;;;6.05;4.60;;;27.40;67.80;;;;;;4958451;28;20031;-80
2021/09/09 12:51:37;;;;;;;5.63;4.70;;;27.40;67.50;;;;;;4948547;28;20102;-80